sensor_id;sensor_type;location;lat;lon;timestamp;P1;durP1;ratioP1;P2;durP2;ratioP2
34896;SDS011;43407;51.828;-2.298;2023-04-02T00:02:33;3.92;;;2.40;;
34896;SDS011;43407;51.828;-2.298;2023-04-02T00:07:50;4.65;;;3.17;;
34896;SDS011;43407;51.828;-2.298;2023-04-02T00:10:27;2.40;;;2.20;;
34896;SDS011;43407;51.828;-2.298;2023-04-02T00:13:05;2.65;;;2.40;;
34896;SDS011;43407;51.828;-2.298;2023-04-02T00:15:45;2.90;;;2.60;;
34896;SDS011;43407;51.828;-2.298;2023-04-02T00:18:15;2.72;;;2.22;;
34896;SDS011;43407;51.828;-2.298;2023-04-02T00:23:34;4.47;;;2.90;;
34896;SDS011;43407;51.828;-2.298;2023-04-02T00:26:01;3.58;;;2.90;;
34896;SDS011;43407;51.828;-2.298;2023-04-02T00:28:30;3.30;;;2.60;;
34896;SDS011;43407;51.828;-2.298;2023-04-02T00:30:59;2.75;;;2.47;;
34896;SDS011;43407;51.828;-2.298;2023-04-02T00:33:26;3.97;;;3.00;;
34896;SDS011;43407;51.828;-2.298;2023-04-02T00:35:53;3.10;;;2.70;;
34896;SDS011;43407;51.828;-2.298;2023-04-02T00:38:29;4.35;;;3.08;;
34896;SDS011;43407;51.828;-2.298;2023-04-02T00:40:57;3.00;;;2.53;;
34896;SDS011;43407;51.828;-2.298;2023-04-02T00:43:28;2.90;;;2.70;;
34896;SDS011;43407;51.828;-2.298;2023-04-02T00:45:56;3.20;;;2.90;;
34896;SDS011;43407;51.828;-2.298;2023-04-02T00:53:48;4.72;;;3.72;;
34896;SDS011;43407;51.828;-2.298;2023-04-02T00:56:21;4.75;;;3.22;;
34896;SDS011;43407;51.828;-2.298;2023-04-02T00:58:54;4.00;;;3.47;;
34896;SDS011;43407;51.828;-2.298;2023-04-02T01:01:22;4.40;;;3.63;;
34896;SDS011;43407;51.828;-2.298;2023-04-02T01:04:03;4.38;;;3.70;;
34896;SDS011;43407;51.828;-2.298;2023-04-02T01:06:30;3.83;;;3.50;;
34896;SDS011;43407;51.828;-2.298;2023-04-02T01:14:20;5.07;;;3.97;;
34896;SDS011;43407;51.828;-2.298;2023-04-02T01:16:51;5.07;;;3.97;;
34896;SDS011;43407;51.828;-2.298;2023-04-02T01:24:45;4.35;;;3.50;;
34896;SDS011;43407;51.828;-2.298;2023-04-02T01:27:19;5.45;;;3.92;;
34896;SDS011;43407;51.828;-2.298;2023-04-02T01:29:57;4.28;;;3.50;;
34896;SDS011;43407;51.828;-2.298;2023-04-02T01:32:24;5.68;;;4.43;;
34896;SDS011;43407;51.828;-2.298;2023-04-02T01:34:52;5.28;;;4.30;;
34896;SDS011;43407;51.828;-2.298;2023-04-02T01:45:17;4.68;;;4.20;;
34896;SDS011;43407;51.828;-2.298;2023-04-02T01:47:43;7.40;;;4.78;;
34896;SDS011;43407;51.828;-2.298;2023-04-02T01:52:45;5.30;;;3.97;;
34896;SDS011;43407;51.828;-2.298;2023-04-02T01:55:14;4.32;;;3.92;;
34896;SDS011;43407;51.828;-2.298;2023-04-02T01:57:42;5.75;;;3.97;;
34896;SDS011;43407;51.828;-2.298;2023-04-02T02:00:14;5.38;;;4.15;;
34896;SDS011;43407;51.828;-2.298;2023-04-02T02:02:41;5.15;;;3.58;;
34896;SDS011;43407;51.828;-2.298;2023-04-02T02:05:17;5.22;;;3.83;;
34896;SDS011;43407;51.828;-2.298;2023-04-02T02:07:45;3.63;;;3.30;;
34896;SDS011;43407;51.828;-2.298;2023-04-02T02:10:14;4.20;;;3.80;;
34896;SDS011;43407;51.828;-2.298;2023-04-02T02:12:44;4.07;;;3.60;;
34896;SDS011;43407;51.828;-2.298;2023-04-02T02:15:13;4.78;;;3.45;;
34896;SDS011;43407;51.828;-2.298;2023-04-02T02:17:41;4.68;;;3.83;;
34896;SDS011;43407;51.828;-2.298;2023-04-02T02:20:07;5.68;;;3.67;;
34896;SDS011;43407;51.828;-2.298;2023-04-02T02:22:36;7.18;;;4.70;;
34896;SDS011;43407;51.828;-2.298;2023-04-02T02:25:05;3.72;;;3.42;;
34896;SDS011;43407;51.828;-2.298;2023-04-02T02:35:56;5.07;;;3.47;;
34896;SDS011;43407;51.828;-2.298;2023-04-02T02:38:33;5.95;;;3.63;;
34896;SDS011;43407;51.828;-2.298;2023-04-02T02:41:05;3.88;;;3.47;;
34896;SDS011;43407;51.828;-2.298;2023-04-02T02:43:33;5.20;;;3.63;;
34896;SDS011;43407;51.828;-2.298;2023-04-02T02:45:59;3.80;;;3.50;;
34896;SDS011;43407;51.828;-2.298;2023-04-02T02:48:31;3.38;;;3.08;;
34896;SDS011;43407;51.828;-2.298;2023-04-02T02:51:01;4.22;;;2.97;;
34896;SDS011;43407;51.828;-2.298;2023-04-02T02:53:30;4.07;;;3.20;;
34896;SDS011;43407;51.828;-2.298;2023-04-02T02:55:56;3.55;;;2.55;;
34896;SDS011;43407;51.828;-2.298;2023-04-02T02:58:28;3.42;;;2.92;;
34896;SDS011;43407;51.828;-2.298;2023-04-02T03:00:56;3.35;;;2.97;;
34896;SDS011;43407;51.828;-2.298;2023-04-02T03:03:23;3.22;;;2.92;;
34896;SDS011;43407;51.828;-2.298;2023-04-02T03:05:55;3.17;;;2.45;;
34896;SDS011;43407;51.828;-2.298;2023-04-02T03:08:41;3.42;;;3.13;;
34896;SDS011;43407;51.828;-2.298;2023-04-02T03:11:12;3.50;;;2.60;;
34896;SDS011;43407;51.828;-2.298;2023-04-02T03:13:42;3.15;;;2.67;;
34896;SDS011;43407;51.828;-2.298;2023-04-02T03:16:19;3.22;;;2.85;;
34896;SDS011;43407;51.828;-2.298;2023-04-02T03:19:07;4.28;;;3.50;;
34896;SDS011;43407;51.828;-2.298;2023-04-02T03:32:56;5.20;;;4.57;;
34896;SDS011;43407;51.828;-2.298;2023-04-02T03:35:29;5.13;;;4.55;;
34896;SDS011;43407;51.828;-2.298;2023-04-02T03:38:39;5.50;;;4.07;;
34896;SDS011;43407;51.828;-2.298;2023-04-02T03:41:09;5.75;;;4.35;;
34896;SDS011;43407;51.828;-2.298;2023-04-02T03:43:38;6.00;;;5.00;;
34896;SDS011;43407;51.828;-2.298;2023-04-02T03:46:10;5.47;;;4.35;;
34896;SDS011;43407;51.828;-2.298;2023-04-02T03:49:30;5.28;;;4.78;;
34896;SDS011;43407;51.828;-2.298;2023-04-02T03:54:27;5.18;;;4.22;;
34896;SDS011;43407;51.828;-2.298;2023-04-02T03:56:53;4.35;;;3.95;;
34896;SDS011;43407;51.828;-2.298;2023-04-02T04:02:01;4.28;;;3.95;;
34896;SDS011;43407;51.828;-2.298;2023-04-02T04:04:37;4.43;;;4.03;;
34896;SDS011;43407;51.828;-2.298;2023-04-02T04:07:04;5.05;;;4.43;;
34896;SDS011;43407;51.828;-2.298;2023-04-02T04:09:35;4.25;;;3.85;;
34896;SDS011;43407;51.828;-2.298;2023-04-02T04:15:14;8.20;;;4.88;;
34896;SDS011;43407;51.828;-2.298;2023-04-02T04:17:49;5.53;;;4.38;;
34896;SDS011;43407;51.828;-2.298;2023-04-02T04:20:40;5.45;;;4.50;;
34896;SDS011;43407;51.828;-2.298;2023-04-02T04:23:25;7.78;;;4.20;;
34896;SDS011;43407;51.828;-2.298;2023-04-02T04:26:01;4.22;;;3.83;;
34896;SDS011;43407;51.828;-2.298;2023-04-02T04:28:46;7.82;;;3.95;;
34896;SDS011;43407;51.828;-2.298;2023-04-02T04:31:37;5.68;;;3.67;;
34896;SDS011;43407;51.828;-2.298;2023-04-02T04:34:18;4.18;;;3.17;;
34896;SDS011;43407;51.828;-2.298;2023-04-02T04:37:13;4.07;;;3.67;;
34896;SDS011;43407;51.828;-2.298;2023-04-02T04:39:49;5.88;;;3.60;;
34896;SDS011;43407;51.828;-2.298;2023-04-02T04:42:31;4.10;;;3.35;;
34896;SDS011;43407;51.828;-2.298;2023-04-02T04:45:05;4.15;;;3.75;;
34896;SDS011;43407;51.828;-2.298;2023-04-02T04:50:54;5.07;;;2.97;;
34896;SDS011;43407;51.828;-2.298;2023-04-02T04:53:24;4.07;;;3.65;;
34896;SDS011;43407;51.828;-2.298;2023-04-02T04:55:51;3.50;;;3.20;;
34896;SDS011;43407;51.828;-2.298;2023-04-02T05:01:26;3.25;;;2.95;;
34896;SDS011;43407;51.828;-2.298;2023-04-02T05:06:34;3.53;;;3.22;;
34896;SDS011;43407;51.828;-2.298;2023-04-02T05:09:10;3.35;;;2.97;;
34896;SDS011;43407;51.828;-2.298;2023-04-02T05:11:41;3.33;;;3.03;;
34896;SDS011;43407;51.828;-2.298;2023-04-02T05:14:55;3.47;;;3.17;;
34896;SDS011;43407;51.828;-2.298;2023-04-02T05:17:27;4.70;;;2.88;;
34896;SDS011;43407;51.828;-2.298;2023-04-02T05:19:58;3.58;;;3.28;;
34896;SDS011;43407;51.828;-2.298;2023-04-02T05:25:06;3.75;;;3.38;;
34896;SDS011;43407;51.828;-2.298;2023-04-02T05:27:49;3.83;;;3.42;;
34896;SDS011;43407;51.828;-2.298;2023-04-02T05:30:31;3.47;;;3.17;;
34896;SDS011;43407;51.828;-2.298;2023-04-02T05:33:25;5.78;;;4.35;;
34896;SDS011;43407;51.828;-2.298;2023-04-02T05:35:55;5.05;;;3.85;;
34896;SDS011;43407;51.828;-2.298;2023-04-02T05:38:45;5.63;;;4.28;;
34896;SDS011;43407;51.828;-2.298;2023-04-02T05:41:20;4.55;;;4.10;;
34896;SDS011;43407;51.828;-2.298;2023-04-02T05:44:13;4.97;;;4.37;;
34896;SDS011;43407;51.828;-2.298;2023-04-02T05:46:45;4.55;;;3.90;;
34896;SDS011;43407;51.828;-2.298;2023-04-02T05:49:26;6.15;;;3.85;;
34896;SDS011;43407;51.828;-2.298;2023-04-02T05:52:07;3.97;;;3.60;;
34896;SDS011;43407;51.828;-2.298;2023-04-02T05:54:37;4.20;;;3.80;;
34896;SDS011;43407;51.828;-2.298;2023-04-02T05:57:12;7.07;;;5.00;;
34896;SDS011;43407;51.828;-2.298;2023-04-02T05:59:41;5.55;;;4.97;;
34896;SDS011;43407;51.828;-2.298;2023-04-02T06:02:20;6.53;;;5.18;;
34896;SDS011;43407;51.828;-2.298;2023-04-02T06:07:16;5.80;;;5.15;;
34896;SDS011;43407;51.828;-2.298;2023-04-02T06:09:45;5.47;;;4.88;;
34896;SDS011;43407;51.828;-2.298;2023-04-02T06:14:46;6.43;;;4.32;;
34896;SDS011;43407;51.828;-2.298;2023-04-02T06:17:13;6.40;;;4.50;;
34896;SDS011;43407;51.828;-2.298;2023-04-02T06:19:40;4.70;;;4.20;;
34896;SDS011;43407;51.828;-2.298;2023-04-02T06:22:07;6.13;;;4.43;;
34896;SDS011;43407;51.828;-2.298;2023-04-02T06:24:37;4.80;;;4.40;;
34896;SDS011;43407;51.828;-2.298;2023-04-02T06:27:04;5.57;;;4.32;;
34896;SDS011;43407;51.828;-2.298;2023-04-02T06:29:35;5.97;;;4.93;;
34896;SDS011;43407;51.828;-2.298;2023-04-02T06:32:07;7.00;;;4.47;;
34896;SDS011;43407;51.828;-2.298;2023-04-02T06:34:35;7.10;;;4.68;;
34896;SDS011;43407;51.828;-2.298;2023-04-02T06:37:03;4.93;;;3.90;;
34896;SDS011;43407;51.828;-2.298;2023-04-02T06:39:36;5.07;;;3.95;;
34896;SDS011;43407;51.828;-2.298;2023-04-02T06:42:03;5.20;;;4.68;;
34896;SDS011;43407;51.828;-2.298;2023-04-02T06:44:32;7.43;;;4.35;;
34896;SDS011;43407;51.828;-2.298;2023-04-02T06:47:45;5.43;;;4.55;;
34896;SDS011;43407;51.828;-2.298;2023-04-02T06:49:49;4.53;;;4.13;;
34896;SDS011;43407;51.828;-2.298;2023-04-02T06:52:23;4.88;;;4.32;;
34896;SDS011;43407;51.828;-2.298;2023-04-02T06:54:50;5.53;;;4.75;;
34896;SDS011;43407;51.828;-2.298;2023-04-02T06:57:15;5.03;;;4.07;;
34896;SDS011;43407;51.828;-2.298;2023-04-02T06:59:41;4.65;;;4.03;;
34896;SDS011;43407;51.828;-2.298;2023-04-02T07:05:03;4.85;;;3.90;;
34896;SDS011;43407;51.828;-2.298;2023-04-02T07:07:35;4.65;;;3.78;;
34896;SDS011;43407;51.828;-2.298;2023-04-02T07:10:01;5.47;;;4.07;;
34896;SDS011;43407;51.828;-2.298;2023-04-02T07:12:26;5.18;;;3.42;;
34896;SDS011;43407;51.828;-2.298;2023-04-02T07:14:52;4.28;;;3.88;;
34896;SDS011;43407;51.828;-2.298;2023-04-02T07:17:18;6.10;;;4.72;;
34896;SDS011;43407;51.828;-2.298;2023-04-02T07:19:44;4.93;;;4.45;;
34896;SDS011;43407;51.828;-2.298;2023-04-02T07:22:16;5.00;;;4.07;;
34896;SDS011;43407;51.828;-2.298;2023-04-02T07:24:43;6.40;;;4.68;;
34896;SDS011;43407;51.828;-2.298;2023-04-02T07:27:10;4.93;;;4.45;;
34896;SDS011;43407;51.828;-2.298;2023-04-02T07:29:35;5.35;;;4.28;;
34896;SDS011;43407;51.828;-2.298;2023-04-02T07:32:06;3.97;;;3.58;;
34896;SDS011;43407;51.828;-2.298;2023-04-02T07:34:35;3.97;;;3.67;;
34896;SDS011;43407;51.828;-2.298;2023-04-02T07:37:01;4.30;;;3.72;;
34896;SDS011;43407;51.828;-2.298;2023-04-02T07:39:27;6.10;;;3.65;;
34896;SDS011;43407;51.828;-2.298;2023-04-02T07:41:56;5.00;;;4.18;;
34896;SDS011;43407;51.828;-2.298;2023-04-02T07:44:22;4.57;;;4.15;;
34896;SDS011;43407;51.828;-2.298;2023-04-02T07:46:48;5.10;;;3.90;;
34896;SDS011;43407;51.828;-2.298;2023-04-02T07:49:14;4.63;;;3.85;;
34896;SDS011;43407;51.828;-2.298;2023-04-02T07:51:39;5.22;;;4.25;;
34896;SDS011;43407;51.828;-2.298;2023-04-02T07:54:05;5.28;;;4.10;;
34896;SDS011;43407;51.828;-2.298;2023-04-02T07:56:34;4.35;;;3.95;;
34896;SDS011;43407;51.828;-2.298;2023-04-02T07:58:59;5.47;;;4.47;;
34896;SDS011;43407;51.828;-2.298;2023-04-02T08:01:26;6.60;;;4.32;;
34896;SDS011;43407;51.828;-2.298;2023-04-02T08:03:54;4.32;;;3.97;;
34896;SDS011;43407;51.828;-2.298;2023-04-02T08:06:20;5.00;;;4.60;;
34896;SDS011;43407;51.828;-2.298;2023-04-02T08:08:46;5.50;;;4.93;;
34896;SDS011;43407;51.828;-2.298;2023-04-02T08:11:12;4.53;;;4.13;;
34896;SDS011;43407;51.828;-2.298;2023-04-02T08:13:37;4.38;;;3.70;;
34896;SDS011;43407;51.828;-2.298;2023-04-02T08:16:03;6.63;;;4.28;;
34896;SDS011;43407;51.828;-2.298;2023-04-02T08:18:30;4.13;;;3.72;;
34896;SDS011;43407;51.828;-2.298;2023-04-02T08:20:55;4.30;;;3.90;;
34896;SDS011;43407;51.828;-2.298;2023-04-02T08:23:22;5.13;;;4.22;;
34896;SDS011;43407;51.828;-2.298;2023-04-02T08:25:48;5.00;;;4.60;;
34896;SDS011;43407;51.828;-2.298;2023-04-02T08:28:14;5.13;;;4.32;;
34896;SDS011;43407;51.828;-2.298;2023-04-02T08:30:40;6.72;;;4.68;;
34896;SDS011;43407;51.828;-2.298;2023-04-02T08:33:05;5.47;;;4.82;;
34896;SDS011;43407;51.828;-2.298;2023-04-02T08:35:31;5.13;;;4.60;;
34896;SDS011;43407;51.828;-2.298;2023-04-02T08:37:57;6.82;;;5.20;;
34896;SDS011;43407;51.828;-2.298;2023-04-02T08:40:28;6.35;;;5.53;;
34896;SDS011;43407;51.828;-2.298;2023-04-02T08:48:29;6.05;;;5.40;;
34896;SDS011;43407;51.828;-2.298;2023-04-02T08:50:56;5.20;;;4.70;;
34896;SDS011;43407;51.828;-2.298;2023-04-02T08:53:28;6.07;;;4.80;;
34896;SDS011;43407;51.828;-2.298;2023-04-02T08:56:17;5.37;;;4.73;;
34896;SDS011;43407;51.828;-2.298;2023-04-02T09:04:19;4.55;;;3.28;;
34896;SDS011;43407;51.828;-2.298;2023-04-02T09:06:47;4.32;;;3.50;;
34896;SDS011;43407;51.828;-2.298;2023-04-02T09:09:15;5.38;;;3.28;;
34896;SDS011;43407;51.828;-2.298;2023-04-02T09:11:51;5.60;;;3.20;;
34896;SDS011;43407;51.828;-2.298;2023-04-02T09:16:57;5.35;;;3.45;;
34896;SDS011;43407;51.828;-2.298;2023-04-02T09:19:30;4.60;;;2.92;;
34896;SDS011;43407;51.828;-2.298;2023-04-02T09:22:15;6.72;;;3.63;;
34896;SDS011;43407;51.828;-2.298;2023-04-02T09:24:54;7.18;;;3.70;;
34896;SDS011;43407;51.828;-2.298;2023-04-02T09:27:25;8.63;;;4.47;;
34896;SDS011;43407;51.828;-2.298;2023-04-02T09:30:02;9.75;;;4.78;;
34896;SDS011;43407;51.828;-2.298;2023-04-02T09:37:37;8.85;;;4.53;;
34896;SDS011;43407;51.828;-2.298;2023-04-02T09:42:41;8.13;;;5.07;;
34896;SDS011;43407;51.828;-2.298;2023-04-02T09:45:16;7.78;;;4.88;;
34896;SDS011;43407;51.828;-2.298;2023-04-02T09:47:44;9.60;;;4.90;;
34896;SDS011;43407;51.828;-2.298;2023-04-02T09:52:45;12.27;;;5.88;;
34896;SDS011;43407;51.828;-2.298;2023-04-02T09:57:40;9.15;;;5.38;;
34896;SDS011;43407;51.828;-2.298;2023-04-02T10:00:13;8.55;;;5.40;;
34896;SDS011;43407;51.828;-2.298;2023-04-02T10:02:44;12.60;;;5.55;;
34896;SDS011;43407;51.828;-2.298;2023-04-02T10:05:16;10.63;;;5.20;;
34896;SDS011;43407;51.828;-2.298;2023-04-02T10:07:49;9.15;;;5.70;;
34896;SDS011;43407;51.828;-2.298;2023-04-02T10:13:06;11.32;;;5.60;;
34896;SDS011;43407;51.828;-2.298;2023-04-02T10:15:45;11.27;;;5.53;;
34896;SDS011;43407;51.828;-2.298;2023-04-02T10:20:55;12.48;;;5.82;;
34896;SDS011;43407;51.828;-2.298;2023-04-02T10:23:22;12.18;;;5.22;;
34896;SDS011;43407;51.828;-2.298;2023-04-02T10:25:54;7.85;;;4.72;;
34896;SDS011;43407;51.828;-2.298;2023-04-02T10:31:18;11.27;;;5.43;;
34896;SDS011;43407;51.828;-2.298;2023-04-02T10:33:50;9.13;;;5.00;;
34896;SDS011;43407;51.828;-2.298;2023-04-02T10:53:16;7.80;;;3.75;;
34896;SDS011;43407;51.828;-2.298;2023-04-02T10:55:46;4.93;;;3.08;;
34896;SDS011;43407;51.828;-2.298;2023-04-02T10:58:28;6.32;;;3.58;;
34896;SDS011;43407;51.828;-2.298;2023-04-02T11:01:02;5.43;;;3.17;;
34896;SDS011;43407;51.828;-2.298;2023-04-02T11:05:59;5.38;;;3.20;;
34896;SDS011;43407;51.828;-2.298;2023-04-02T11:08:34;7.25;;;3.05;;
34896;SDS011;43407;51.828;-2.298;2023-04-02T11:11:21;6.00;;;3.33;;
34896;SDS011;43407;51.828;-2.298;2023-04-02T11:16:34;8.27;;;3.65;;
34896;SDS011;43407;51.828;-2.298;2023-04-02T11:21:42;6.28;;;3.75;;
34896;SDS011;43407;51.828;-2.298;2023-04-02T11:27:04;13.25;;;4.45;;
34896;SDS011;43407;51.828;-2.298;2023-04-02T11:29:35;6.97;;;3.80;;
34896;SDS011;43407;51.828;-2.298;2023-04-02T11:32:13;12.80;;;4.65;;
34896;SDS011;43407;51.828;-2.298;2023-04-02T11:42:36;8.10;;;4.22;;
34896;SDS011;43407;51.828;-2.298;2023-04-02T11:50:31;7.57;;;4.13;;
34896;SDS011;43407;51.828;-2.298;2023-04-02T11:53:40;11.20;;;4.53;;
34896;SDS011;43407;51.828;-2.298;2023-04-02T11:56:05;10.10;;;4.32;;
34896;SDS011;43407;51.828;-2.298;2023-04-02T12:10:48;7.13;;;4.05;;
34896;SDS011;43407;51.828;-2.298;2023-04-02T12:13:45;8.90;;;4.07;;
34896;SDS011;43407;51.828;-2.298;2023-04-02T12:16:05;11.02;;;3.95;;
34896;SDS011;43407;51.828;-2.298;2023-04-02T12:18:32;7.38;;;3.30;;
34896;SDS011;43407;51.828;-2.298;2023-04-02T12:20:58;10.30;;;3.67;;
34896;SDS011;43407;51.828;-2.298;2023-04-02T12:23:31;6.00;;;3.60;;
34896;SDS011;43407;51.828;-2.298;2023-04-02T12:26:02;9.63;;;3.47;;
34896;SDS011;43407;51.828;-2.298;2023-04-02T12:28:33;7.47;;;3.50;;
34896;SDS011;43407;51.828;-2.298;2023-04-02T12:33:34;8.15;;;3.80;;
34896;SDS011;43407;51.828;-2.298;2023-04-02T12:36:22;9.88;;;4.32;;
34896;SDS011;43407;51.828;-2.298;2023-04-02T12:38:54;9.65;;;3.88;;
34896;SDS011;43407;51.828;-2.298;2023-04-02T12:41:22;6.43;;;3.58;;
34896;SDS011;43407;51.828;-2.298;2023-04-02T12:43:57;9.23;;;3.33;;
34896;SDS011;43407;51.828;-2.298;2023-04-02T12:46:24;7.22;;;3.67;;
34896;SDS011;43407;51.828;-2.298;2023-04-02T12:48:54;5.65;;;3.65;;
34896;SDS011;43407;51.828;-2.298;2023-04-02T12:51:27;9.32;;;3.53;;
34896;SDS011;43407;51.828;-2.298;2023-04-02T12:53:52;7.20;;;3.60;;
34896;SDS011;43407;51.828;-2.298;2023-04-02T12:56:19;6.60;;;3.60;;
34896;SDS011;43407;51.828;-2.298;2023-04-02T12:58:51;7.00;;;3.40;;
34896;SDS011;43407;51.828;-2.298;2023-04-02T13:01:24;9.10;;;3.85;;
34896;SDS011;43407;51.828;-2.298;2023-04-02T13:04:00;7.20;;;3.30;;
34896;SDS011;43407;51.828;-2.298;2023-04-02T13:06:29;7.95;;;3.80;;
34896;SDS011;43407;51.828;-2.298;2023-04-02T13:08:55;8.05;;;3.30;;
34896;SDS011;43407;51.828;-2.298;2023-04-02T13:11:21;7.57;;;3.03;;
34896;SDS011;43407;51.828;-2.298;2023-04-02T13:13:47;6.40;;;3.35;;
34896;SDS011;43407;51.828;-2.298;2023-04-02T13:18:39;8.02;;;3.13;;
34896;SDS011;43407;51.828;-2.298;2023-04-02T13:21:24;6.75;;;2.88;;
34896;SDS011;43407;51.828;-2.298;2023-04-02T13:23:53;4.18;;;2.95;;
34896;SDS011;43407;51.828;-2.298;2023-04-02T13:26:23;6.38;;;3.30;;
34896;SDS011;43407;51.828;-2.298;2023-04-02T13:31:20;10.00;;;4.22;;
34896;SDS011;43407;51.828;-2.298;2023-04-02T13:33:45;5.50;;;3.60;;
34896;SDS011;43407;51.828;-2.298;2023-04-02T13:36:12;9.82;;;4.10;;
34896;SDS011;43407;51.828;-2.298;2023-04-02T13:38:38;6.07;;;4.00;;
34896;SDS011;43407;51.828;-2.298;2023-04-02T13:41:04;7.63;;;4.30;;
34896;SDS011;43407;51.828;-2.298;2023-04-02T13:43:29;8.15;;;4.22;;
34896;SDS011;43407;51.828;-2.298;2023-04-02T13:45:55;7.38;;;4.32;;
34896;SDS011;43407;51.828;-2.298;2023-04-02T13:48:22;7.88;;;4.43;;
34896;SDS011;43407;51.828;-2.298;2023-04-02T13:50:50;5.05;;;3.65;;
34896;SDS011;43407;51.828;-2.298;2023-04-02T13:53:21;5.70;;;3.97;;
34896;SDS011;43407;51.828;-2.298;2023-04-02T13:55:50;8.73;;;4.18;;
34896;SDS011;43407;51.828;-2.298;2023-04-02T13:58:16;6.35;;;3.75;;
34896;SDS011;43407;51.828;-2.298;2023-04-02T14:00:43;8.57;;;4.13;;
34896;SDS011;43407;51.828;-2.298;2023-04-02T14:03:10;8.48;;;3.95;;
34896;SDS011;43407;51.828;-2.298;2023-04-02T14:27:02;8.85;;;4.55;;
34896;SDS011;43407;51.828;-2.298;2023-04-02T14:32:26;7.05;;;3.75;;
34896;SDS011;43407;51.828;-2.298;2023-04-02T14:38:29;5.18;;;3.35;;
34896;SDS011;43407;51.828;-2.298;2023-04-02T14:45:56;8.55;;;4.13;;
34896;SDS011;43407;51.828;-2.298;2023-04-02T14:56:46;7.00;;;3.63;;
34896;SDS011;43407;51.828;-2.298;2023-04-02T14:59:20;10.55;;;4.10;;
34896;SDS011;43407;51.828;-2.298;2023-04-02T15:01:48;10.75;;;4.20;;
34896;SDS011;43407;51.828;-2.298;2023-04-02T15:10:16;7.07;;;3.83;;
34896;SDS011;43407;51.828;-2.298;2023-04-02T15:13:15;6.95;;;3.90;;
34896;SDS011;43407;51.828;-2.298;2023-04-02T15:18:18;7.68;;;3.83;;
34896;SDS011;43407;51.828;-2.298;2023-04-02T15:28:58;6.40;;;3.45;;
34896;SDS011;43407;51.828;-2.298;2023-04-02T15:31:29;6.90;;;3.15;;
34896;SDS011;43407;51.828;-2.298;2023-04-02T15:34:08;6.15;;;2.50;;
34896;SDS011;43407;51.828;-2.298;2023-04-02T15:42:19;7.07;;;3.20;;
34896;SDS011;43407;51.828;-2.298;2023-04-02T15:44:52;6.65;;;3.47;;
34896;SDS011;43407;51.828;-2.298;2023-04-02T15:53:03;6.00;;;3.90;;
34896;SDS011;43407;51.828;-2.298;2023-04-02T16:01:10;8.35;;;3.17;;
34896;SDS011;43407;51.828;-2.298;2023-04-02T16:11:26;5.95;;;2.47;;
34896;SDS011;43407;51.828;-2.298;2023-04-02T16:13:57;9.18;;;2.55;;
34896;SDS011;43407;51.828;-2.298;2023-04-02T16:16:30;8.23;;;2.50;;
34896;SDS011;43407;51.828;-2.298;2023-04-02T16:21:47;5.97;;;2.40;;
34896;SDS011;43407;51.828;-2.298;2023-04-02T16:24:18;7.55;;;2.60;;
34896;SDS011;43407;51.828;-2.298;2023-04-02T16:29:37;10.15;;;2.60;;
34896;SDS011;43407;51.828;-2.298;2023-04-02T16:32:39;5.90;;;2.10;;
34896;SDS011;43407;51.828;-2.298;2023-04-02T16:38:33;8.15;;;2.35;;
34896;SDS011;43407;51.828;-2.298;2023-04-02T16:47:08;6.03;;;2.10;;
34896;SDS011;43407;51.828;-2.298;2023-04-02T16:55:20;5.45;;;2.20;;
34896;SDS011;43407;51.828;-2.298;2023-04-02T17:00:23;4.63;;;1.90;;
34896;SDS011;43407;51.828;-2.298;2023-04-02T17:05:50;6.30;;;2.28;;
34896;SDS011;43407;51.828;-2.298;2023-04-02T17:10:50;8.05;;;2.25;;
34896;SDS011;43407;51.828;-2.298;2023-04-02T17:13:24;5.97;;;2.30;;
34896;SDS011;43407;51.828;-2.298;2023-04-02T17:18:31;12.95;;;2.22;;
34896;SDS011;43407;51.828;-2.298;2023-04-02T17:21:01;5.93;;;2.58;;
34896;SDS011;43407;51.828;-2.298;2023-04-02T17:23:29;6.32;;;2.05;;
34896;SDS011;43407;51.828;-2.298;2023-04-02T17:25:57;4.03;;;1.88;;
34896;SDS011;43407;51.828;-2.298;2023-04-02T17:28:28;8.15;;;2.33;;
34896;SDS011;43407;51.828;-2.298;2023-04-02T17:31:00;4.13;;;2.00;;
34896;SDS011;43407;51.828;-2.298;2023-04-02T17:33:28;6.93;;;2.28;;
34896;SDS011;43407;51.828;-2.298;2023-04-02T17:41:37;3.00;;;1.60;;
34896;SDS011;43407;51.828;-2.298;2023-04-02T17:46:47;3.17;;;1.80;;
34896;SDS011;43407;51.828;-2.298;2023-04-02T17:52:15;9.73;;;2.42;;
34896;SDS011;43407;51.828;-2.298;2023-04-02T18:02:58;5.20;;;2.20;;
34896;SDS011;43407;51.828;-2.298;2023-04-02T18:05:36;3.65;;;1.50;;
34896;SDS011;43407;51.828;-2.298;2023-04-02T18:13:37;6.90;;;1.88;;
34896;SDS011;43407;51.828;-2.298;2023-04-02T18:18:48;2.85;;;1.40;;
34896;SDS011;43407;51.828;-2.298;2023-04-02T18:21:53;3.55;;;1.40;;
34896;SDS011;43407;51.828;-2.298;2023-04-02T18:30:03;1.92;;;1.20;;
34896;SDS011;43407;51.828;-2.298;2023-04-02T18:38:43;4.03;;;1.50;;
34896;SDS011;43407;51.828;-2.298;2023-04-02T18:43:55;4.15;;;1.30;;
34896;SDS011;43407;51.828;-2.298;2023-04-02T18:46:38;4.38;;;1.50;;
34896;SDS011;43407;51.828;-2.298;2023-04-02T18:49:27;3.15;;;1.38;;
34896;SDS011;43407;51.828;-2.298;2023-04-02T18:52:01;3.17;;;1.58;;
34896;SDS011;43407;51.828;-2.298;2023-04-02T19:05:42;3.80;;;1.40;;
34896;SDS011;43407;51.828;-2.298;2023-04-02T19:10:59;3.70;;;1.67;;
34896;SDS011;43407;51.828;-2.298;2023-04-02T19:13:31;3.47;;;1.33;;
34896;SDS011;43407;51.828;-2.298;2023-04-02T19:16:02;5.55;;;1.63;;
34896;SDS011;43407;51.828;-2.298;2023-04-02T19:35:18;6.97;;;2.40;;
34896;SDS011;43407;51.828;-2.298;2023-04-02T19:38:34;5.00;;;2.50;;
34896;SDS011;43407;51.828;-2.298;2023-04-02T19:40:53;5.13;;;2.50;;
34896;SDS011;43407;51.828;-2.298;2023-04-02T19:43:23;4.03;;;2.05;;
34896;SDS011;43407;51.828;-2.298;2023-04-02T19:45:48;3.15;;;2.00;;
34896;SDS011;43407;51.828;-2.298;2023-04-02T19:48:16;5.75;;;2.60;;
34896;SDS011;43407;51.828;-2.298;2023-04-02T19:50:46;3.45;;;2.20;;
34896;SDS011;43407;51.828;-2.298;2023-04-02T19:53:12;6.07;;;2.45;;
34896;SDS011;43407;51.828;-2.298;2023-04-02T19:55:39;2.83;;;2.42;;
34896;SDS011;43407;51.828;-2.298;2023-04-02T19:58:05;4.20;;;2.20;;
34896;SDS011;43407;51.828;-2.298;2023-04-02T20:00:31;3.85;;;2.15;;
34896;SDS011;43407;51.828;-2.298;2023-04-02T20:02:57;3.83;;;2.20;;
34896;SDS011;43407;51.828;-2.298;2023-04-02T20:05:23;3.30;;;1.83;;
34896;SDS011;43407;51.828;-2.298;2023-04-02T20:07:48;4.00;;;2.28;;
34896;SDS011;43407;51.828;-2.298;2023-04-02T20:10:14;7.20;;;2.40;;
34896;SDS011;43407;51.828;-2.298;2023-04-02T20:12:40;5.03;;;2.35;;
34896;SDS011;43407;51.828;-2.298;2023-04-02T20:15:06;3.83;;;2.03;;
34896;SDS011;43407;51.828;-2.298;2023-04-02T20:17:32;4.28;;;2.10;;
34896;SDS011;43407;51.828;-2.298;2023-04-02T20:19:57;3.90;;;2.10;;
34896;SDS011;43407;51.828;-2.298;2023-04-02T20:22:23;6.28;;;2.22;;
34896;SDS011;43407;51.828;-2.298;2023-04-02T20:24:49;4.70;;;2.50;;
34896;SDS011;43407;51.828;-2.298;2023-04-02T20:27:15;9.40;;;2.70;;
34896;SDS011;43407;51.828;-2.298;2023-04-02T20:29:41;3.10;;;2.17;;
34896;SDS011;43407;51.828;-2.298;2023-04-02T20:32:09;5.47;;;2.40;;
34896;SDS011;43407;51.828;-2.298;2023-04-02T20:34:36;4.75;;;2.30;;
34896;SDS011;43407;51.828;-2.298;2023-04-02T20:37:02;5.18;;;1.90;;
34896;SDS011;43407;51.828;-2.298;2023-04-02T20:39:28;2.88;;;1.73;;
34896;SDS011;43407;51.828;-2.298;2023-04-02T20:41:54;4.28;;;2.10;;
34896;SDS011;43407;51.828;-2.298;2023-04-02T20:44:25;3.63;;;2.25;;
34896;SDS011;43407;51.828;-2.298;2023-04-02T20:46:52;3.38;;;1.92;;
34896;SDS011;43407;51.828;-2.298;2023-04-02T20:49:18;5.60;;;2.00;;
34896;SDS011;43407;51.828;-2.298;2023-04-02T20:51:43;2.97;;;1.75;;
34896;SDS011;43407;51.828;-2.298;2023-04-02T20:54:09;4.18;;;1.83;;
34896;SDS011;43407;51.828;-2.298;2023-04-02T20:56:35;2.50;;;1.50;;
34896;SDS011;43407;51.828;-2.298;2023-04-02T20:59:01;5.85;;;2.05;;
34896;SDS011;43407;51.828;-2.298;2023-04-02T21:01:27;3.22;;;1.52;;